Time;durP1;ratioP1;P1;durP2;ratioP2;P2;SDS_P1;SDS_P2;PMS_P1;PMS_P2;Temp;Humidity;BMP_temperature;BMP_pressure;BME280_temperature;BME280_humidity;BME280_pressure;Samples;Min_cycle;Max_cycle;Signal;HPM_P1;HPM_P2
2021/10/27 00:02:13;;;;;;;16.37;10.50;;;;;;;13.45;87.75;101287.19;5056739;28;20167;-70
2021/10/27 00:04:38;;;;;;;15.03;10.10;;;;;;;13.63;86.22;101281.69;5056407;28;20215;-70
2021/10/27 00:07:04;;;;;;;15.43;9.60;;;;;;;13.50;87.07;101275.34;5074600;28;20683;-70
2021/10/27 00:09:29;;;;;;;13.20;9.77;;;;;;;13.20;86.69;101270.75;5076335;28;20225;-70
2021/10/27 00:11:54;;;;;;;14.43;9.23;;;;;;;13.56;86.48;101280.31;5095082;28;20182;-70
2021/10/27 00:14:20;;;;;;;15.33;9.50;;;;;;;13.39;87.12;101274.13;5093442;28;20257;-70
2021/10/27 00:16:45;;;;;;;14.20;9.07;;;;;;;13.53;86.97;101280.50;5094725;28;20224;-71
2021/10/27 00:19:10;;;;;;;13.50;10.07;;;;;;;13.56;86.82;101272.28;5094627;28;20644;-70
2021/10/27 00:21:36;;;;;;;15.10;9.07;;;;;;;13.26;87.02;101275.78;5094920;28;20653;-70
2021/10/27 00:24:02;;;;;;;13.43;9.20;;;;;;;13.59;86.36;101274.78;5094546;28;20174;-70
2021/10/27 00:26:27;;;;;;;12.33;9.17;;;;;;;13.63;86.13;101273.66;5093080;28;20214;-70
2021/10/27 00:28:52;;;;;;;12.33;8.73;;;;;;;13.67;85.33;101277.88;5093067;28;20185;-70
2021/10/27 00:31:18;;;;;;;12.83;9.00;;;;;;;13.77;85.87;101285.31;5094323;28;20194;-70
2021/10/27 00:33:45;;;;;;;16.07;9.10;;;;;;;13.70;84.95;101291.09;5076253;28;20229;-70
2021/10/27 00:36:10;;;;;;;15.87;8.80;;;;;;;13.45;85.17;101275.59;5094191;28;20583;-70
2021/10/27 00:38:35;;;;;;;13.23;8.10;;;;;;;13.88;84.25;101291.84;5093818;28;20182;-71
2021/10/27 00:41:01;;;;;;;18.17;8.50;;;;;;;13.69;84.51;101289.38;5094533;28;20674;-70
2021/10/27 00:43:27;;;;;;;13.57;8.43;;;;;;;13.88;83.62;101287.34;5093170;28;20174;-70
2021/10/27 00:45:52;;;;;;;12.20;8.13;;;;;;;13.81;83.83;101288.69;5093994;28;20170;-70
2021/10/27 00:48:17;;;;;;;14.33;8.60;;;;;;;13.88;83.14;101291.84;5092743;28;20304;-70
2021/10/27 00:50:43;;;;;;;15.97;8.10;;;;;;;13.98;82.72;101287.66;5093780;28;20213;-70
2021/10/27 00:53:08;;;;;;;12.37;7.40;;;;;;;13.73;83.86;101285.56;5093960;28;20222;-70
2021/10/27 00:55:33;;;;;;;13.50;7.63;;;;;;;13.80;84.28;101296.81;5094079;28;20186;-70
2021/10/27 00:57:58;;;;;;;14.23;7.77;;;;;;;13.81;83.72;101296.72;5093930;28;20162;-70
2021/10/27 01:00:24;;;;;;;11.37;7.20;;;;;;;13.83;83.34;101283.22;5093754;28;20206;-70
2021/10/27 01:02:50;;;;;;;11.63;7.53;;;;;;;13.81;83.11;101285.13;5092695;28;20269;-70
2021/10/27 01:05:16;;;;;;;13.37;7.57;;;;;;;13.71;83.50;101279.41;5075349;28;20639;-70
2021/10/27 01:07:41;;;;;;;16.63;7.90;;;;;;;13.81;83.04;101275.25;5093538;28;20194;-70
2021/10/27 01:10:07;;;;;;;14.83;7.67;;;;;;;13.68;83.38;101269.75;5092288;28;20193;-70
2021/10/27 01:12:32;;;;;;;14.73;8.03;;;;;;;13.73;82.97;101272.16;5092183;28;20182;-70
2021/10/27 01:14:57;;;;;;;10.07;7.27;;;;;;;13.97;82.18;101276.06;5092247;28;20178;-70
2021/10/27 01:17:23;;;;;;;12.63;7.20;;;;;;;14.08;82.04;101284.31;5092313;28;20520;-70
2021/10/27 01:19:49;;;;;;;7.53;6.47;;;;;;;13.97;81.76;101276.06;5092261;28;20223;-70
2021/10/27 01:22:16;;;;;;;15.53;7.73;;;;;;;14.16;81.64;101281.19;5092284;28;20231;-70
2021/10/27 01:24:41;;;;;;;10.53;7.17;;;;;;;14.02;82.17;101284.69;5093552;28;20192;-70
2021/10/27 01:27:06;;;;;;;14.53;7.30;;;;;;;13.88;82.47;101276.63;5075134;28;20202;-70
2021/10/27 01:29:32;;;;;;;9.00;7.13;;;;;;;13.97;81.77;101277.88;5093486;28;20244;-70
2021/10/27 01:31:57;;;;;;;10.13;6.33;;;;;;;13.84;81.84;101267.03;5091890;28;20174;-71
2021/10/27 01:34:23;;;;;;;9.53;6.70;;;;;;;13.95;81.49;101275.28;5092488;28;20205;-70
2021/10/27 01:36:48;;;;;;;14.03;7.07;;;;;;;13.85;82.38;101279.50;5093221;28;20173;-70
2021/10/27 01:39:14;;;;;;;9.97;6.73;;;;;;;13.87;82.20;101279.41;5093239;28;20174;-70
2021/10/27 01:41:39;;;;;;;14.77;7.03;;;;;;;14.08;81.48;101283.47;5093362;28;20208;-70
2021/10/27 01:44:04;;;;;;;13.10;7.20;;;;;;;13.89;82.45;101278.34;5093313;28;20630;-70
2021/10/27 01:46:32;;;;;;;10.10;6.90;;;;;;;13.83;83.28;101283.22;5093149;28;20174;-70
2021/10/27 01:48:58;;;;;;;14.30;6.93;;;;;;;13.73;84.58;101272.16;5091863;28;20208;-70
2021/10/27 01:51:25;;;;;;;14.03;8.40;;;;;;;13.61;85.51;101276.41;5091978;28;20190;-70
2021/10/27 01:53:51;;;;;;;11.00;8.10;;;;;;;13.45;87.12;101263.06;5093395;28;20547;-70
2021/10/27 01:56:16;;;;;;;13.90;7.53;;;;;;;13.52;86.53;101258.19;5093177;28;20178;-70
2021/10/27 01:58:41;;;;;;;12.53;8.27;;;;;;;13.55;86.20;101265.19;5091924;28;20266;-71
2021/10/27 02:01:07;;;;;;;10.50;6.97;;;;;;;13.68;85.07;101264.38;5092779;28;20292;-70
2021/10/27 02:03:32;;;;;;;14.13;7.67;;;;;;;13.80;85.06;101273.53;5092145;28;20184;-70
2021/10/27 02:05:57;;;;;;;12.90;7.27;;;;;;;13.73;85.17;101269.47;5093035;28;20639;-70
2021/10/27 02:08:22;;;;;;;14.17;8.13;;;;;;;13.77;84.99;101273.72;5092765;28;20198;-70
2021/10/27 02:10:48;;;;;;;13.43;8.53;;;;;;;13.72;85.21;101273.09;5092896;28;20286;-70
2021/10/27 02:13:13;;;;;;;12.67;7.37;;;;;;;13.71;85.57;101268.69;5091678;28;20182;-70
2021/10/27 02:15:38;;;;;;;10.30;7.13;;;;;;;13.74;85.76;101273.88;5092886;28;20181;-70
2021/10/27 02:18:04;;;;;;;15.00;8.67;;;;;;;13.59;85.69;101269.41;5091874;28;20251;-70
2021/10/27 02:20:29;;;;;;;13.57;8.20;;;;;;;13.74;85.59;101268.50;5091841;28;20601;-70
2021/10/27 02:22:54;;;;;;;15.20;8.50;;;;;;;13.49;87.57;101268.25;5092048;28;20174;-70
2021/10/27 02:25:20;;;;;;;13.27;8.80;;;;;;;13.30;88.90;101269.28;5091469;28;20182;-70
2021/10/27 02:27:45;;;;;;;15.87;8.40;;;;;;;13.25;89.21;101271.38;5092865;28;20202;-70
2021/10/27 02:30:11;;;;;;;20.80;9.30;;;;;;;13.40;89.37;101272.31;5092613;28;20212;-70
2021/10/27 02:32:36;;;;;;;13.20;8.23;;;;;;;13.21;89.00;101274.31;5093111;28;20181;-70
2021/10/27 02:35:02;;;;;;;13.77;8.77;;;;;;;13.27;90.02;101274.81;5074624;28;20243;-70
2021/10/27 02:37:27;;;;;;;12.97;8.60;;;;;;;13.57;88.18;101263.28;5091558;28;20175;-70
2021/10/27 02:39:52;;;;;;;12.20;8.37;;;;;;;13.58;87.94;101259.66;5092649;28;20243;-70
2021/10/27 02:42:18;;;;;;;14.13;8.20;;;;;;;13.26;88.17;101257.00;5092724;28;20540;-70
2021/10/27 02:44:43;;;;;;;14.87;8.40;;;;;;;13.69;86.78;101265.22;5091799;28;20185;-70
2021/10/27 02:47:09;;;;;;;12.40;8.17;;;;;;;13.58;86.74;101256.97;5091249;28;20213;-72
2021/10/27 02:49:34;;;;;;;13.73;7.60;;;;;;;13.39;86.93;101246.47;5092519;28;20292;-70
2021/10/27 02:51:59;;;;;;;15.03;7.97;;;;;;;13.85;85.78;101255.34;5092363;28;20174;-70
2021/10/27 02:54:24;;;;;;;14.37;7.80;;;;;;;13.74;85.37;101261.31;5091107;28;20187;-70
2021/10/27 02:56:50;;;;;;;11.17;7.23;;;;;;;13.75;85.92;101259.50;5092540;28;20173;-70
2021/10/27 02:59:15;;;;;;;16.57;7.13;;;;;;;13.74;85.84;101252.41;5074296;28;20194;-71
2021/10/27 03:01:41;;;;;;;12.43;7.77;;;;;;;13.66;85.82;101255.56;5093663;28;20195;-72
2021/10/27 03:04:08;;;;;;;16.53;7.60;;;;;;;13.92;85.56;101259.38;5095955;28;20178;-70
2021/10/27 03:06:33;;;;;;;12.40;7.40;;;;;;;13.51;87.48;101260.97;5095959;28;20182;-70
2021/10/27 03:08:59;;;;;;;10.03;7.13;;;;;;;13.56;86.73;101256.19;5095947;28;20632;-69
2021/10/27 03:11:24;;;;;;;15.80;7.67;;;;;;;13.48;86.96;101259.31;5095872;28;20197;-71
2021/10/27 03:13:49;;;;;;;15.97;7.27;;;;;;;13.59;86.88;101272.97;5095939;28;20670;-71
2021/10/27 03:16:15;;;;;;;16.70;7.00;;;;;;;13.76;85.67;101256.75;5094693;28;20534;-70
2021/10/27 03:18:40;;;;;;;14.40;7.83;;;;;;;13.82;86.26;101260.91;5095924;28;20174;-70
2021/10/27 03:21:05;;;;;;;13.07;7.43;;;;;;;13.95;85.10;101267.25;5095617;28;20197;-70
2021/10/27 03:23:31;;;;;;;11.93;6.77;;;;;;;13.97;84.99;101270.69;5094467;28;20251;-69
2021/10/27 03:25:56;;;;;;;13.93;7.33;;;;;;;14.04;84.42;101282.78;5095698;28;20646;-70
2021/10/27 03:28:21;;;;;;;13.00;7.07;;;;;;;14.01;84.62;101269.56;5094538;28;20613;-70
2021/10/27 03:30:47;;;;;;;13.90;7.00;;;;;;;13.95;84.69;101272.59;5095505;28;20265;-70
2021/10/27 03:33:13;;;;;;;13.03;6.83;;;;;;;14.00;84.29;101275.00;5094350;28;20189;-70
2021/10/27 03:35:38;;;;;;;15.43;6.57;;;;;;;14.12;84.01;101284.13;5095179;28;20243;-71
2021/10/27 03:38:04;;;;;;;11.67;6.90;;;;;;;13.98;84.71;101279.63;5095358;28;20177;-70
2021/10/27 03:40:29;;;;;;;11.60;6.43;;;;;;;13.89;84.70;101272.97;5095220;28;20190;-70
2021/10/27 03:42:54;;;;;;;13.87;6.30;;;;;;;14.08;84.24;101273.59;5095891;28;20170;-71
2021/10/27 03:45:20;;;;;;;11.97;6.10;;;;;;;14.04;84.09;101277.41;5094255;28;20174;-70
2021/10/27 03:47:45;;;;;;;10.50;5.70;;;;;;;14.13;84.16;101281.38;5094790;28;20205;-70
2021/10/27 03:50:14;;;;;;;13.70;6.17;;;;;;;13.97;84.96;101276.06;5093998;28;20206;-70
2021/10/27 03:52:41;;;;;;;12.80;6.10;;;;;;;14.14;84.20;101283.13;5094995;28;20697;-70
2021/10/27 03:55:06;;;;;;;10.50;6.53;;;;;;;13.61;85.87;101267.50;5094995;28;20174;-70
2021/10/27 03:57:32;;;;;;;11.87;5.70;;;;;;;14.06;84.61;101286.25;5094965;28;20594;-71
2021/10/27 03:59:58;;;;;;;11.33;5.90;;;;;;;13.98;84.87;101287.66;5094808;28;20702;-70
2021/10/27 04:02:23;;;;;;;10.33;5.60;;;;;;;14.05;84.66;101283.66;5093576;28;20185;-69
2021/10/27 04:04:49;;;;;;;8.37;5.47;;;;;;;14.16;84.07;101283.03;5094865;28;20174;-69
2021/10/27 04:07:14;;;;;;;15.67;6.03;;;;;;;13.95;85.29;101286.03;5076525;28;20201;-69
2021/10/27 04:09:39;;;;;;;7.60;5.10;;;;;;;13.93;84.44;101290.63;5076626;28;20571;-69
2021/10/27 04:12:05;;;;;;;7.70;5.13;;;;;;;13.92;85.03;101290.72;5093648;28;20205;-70
2021/10/27 04:14:30;;;;;;;12.70;5.97;;;;;;;14.17;83.80;101292.81;5094733;28;20186;-70
2021/10/27 04:16:56;;;;;;;12.80;5.37;;;;;;;13.57;84.82;101282.91;5093426;28;20223;-70
2021/10/27 04:19:21;;;;;;;12.43;5.23;;;;;;;14.06;84.37;101301.47;5076980;28;20627;-72
2021/10/27 04:21:46;;;;;;;12.93;5.30;;;;;;;14.05;84.27;101300.63;5095116;28;20178;-70
2021/10/27 04:24:12;;;;;;;12.80;5.40;;;;;;;14.13;83.73;101302.88;5094761;28;20189;-70
2021/10/27 04:26:37;;;;;;;8.67;4.97;;;;;;;14.08;83.44;101295.06;5095120;28;20228;-70
2021/10/27 04:29:02;;;;;;;8.47;4.63;;;;;;;13.78;84.23;101286.19;5094519;28;20594;-69
2021/10/27 04:31:28;;;;;;;8.43;4.97;;;;;;;14.00;84.24;101291.13;5094456;28;20194;-70
2021/10/27 04:33:53;;;;;;;7.90;4.47;;;;;;;13.86;83.99;101289.25;5094420;28;20233;-69
2021/10/27 04:36:19;;;;;;;10.20;4.77;;;;;;;13.92;84.30;101294.25;5093674;28;20231;-70
2021/10/27 04:38:44;;;;;;;11.30;5.77;;;;;;;14.09;83.62;101290.56;5094513;28;20178;-71
2021/10/27 04:41:10;;;;;;;10.80;4.40;;;;;;;13.98;84.04;101296.56;5095152;28;20198;-71
2021/10/27 04:43:35;;;;;;;14.93;4.90;;;;;;;14.18;83.36;101295.38;5093888;28;20547;-70
2021/10/27 04:46:01;;;;;;;14.03;5.20;;;;;;;14.20;83.09;101295.28;5094717;28;20643;-71
2021/10/27 04:48:26;;;;;;;11.57;4.93;;;;;;;14.23;83.11;101297.78;5094766;28;20698;-70
2021/10/27 04:50:51;;;;;;;12.30;4.40;;;;;;;14.35;82.51;101297.91;5095246;28;20253;-70
2021/10/27 04:53:18;;;;;;;10.10;4.63;;;;;;;14.39;82.38;101299.44;5094018;28;20182;-69
2021/10/27 04:55:45;;;;;;;12.17;5.00;;;;;;;14.21;83.32;101289.84;5094801;28;20177;-70
2021/10/27 04:58:10;;;;;;;9.33;4.40;;;;;;;14.17;83.05;101293.66;5095344;28;20174;-71
2021/10/27 05:00:36;;;;;;;9.47;4.00;;;;;;;14.17;83.56;101300.84;5092969;28;20209;-70
2021/10/27 05:03:03;;;;;;;10.23;4.40;;;;;;;14.03;84.21;101301.66;5094538;28;20174;-70
2021/10/27 05:05:29;;;;;;;9.27;4.87;;;;;;;14.16;83.82;101297.31;5093117;28;20275;-70
2021/10/27 05:07:56;;;;;;;9.40;5.00;;;;;;;13.79;85.01;101284.34;5093150;28;20227;-69
2021/10/27 05:10:22;;;;;;;13.30;5.00;;;;;;;13.98;84.58;101285.84;5076261;28;20194;-61
2021/10/27 05:12:47;;;;;;;13.60;5.07;;;;;;;13.95;84.31;101294.06;5094053;28;20170;-61
2021/10/27 05:15:12;;;;;;;7.77;4.90;;;;;;;13.85;85.31;101281.31;5093519;28;20167;-61
2021/10/27 05:17:37;;;;;;;11.10;4.97;;;;;;;14.18;83.52;101283.78;5093891;28;20173;-60
2021/10/27 05:20:03;;;;;;;14.63;5.10;;;;;;;14.03;83.70;101285.56;5093484;28;20667;-60
2021/10/27 05:22:29;;;;;;;12.10;4.60;;;;;;;13.98;83.72;101283.16;5093742;28;20227;-60
2021/10/27 05:24:54;;;;;;;11.47;4.50;;;;;;;14.23;83.32;101287.06;5093676;28;20174;-62
2021/10/27 05:27:19;;;;;;;10.63;4.90;;;;;;;14.38;82.89;101286.97;5093708;28;20194;-61
2021/10/27 05:29:45;;;;;;;10.77;4.77;;;;;;;13.87;84.02;101280.25;5093852;28;20599;-61
2021/10/27 05:32:10;;;;;;;9.07;4.50;;;;;;;14.32;83.19;101297.22;5094193;28;20181;-62
2021/10/27 05:34:37;;;;;;;10.67;5.00;;;;;;;14.31;82.92;101308.94;5093183;28;20594;-62
2021/10/27 05:37:03;;;;;;;10.17;4.53;;;;;;;14.33;82.67;101298.94;5096708;28;20166;-61
2021/10/27 05:39:29;;;;;;;9.20;4.50;;;;;;;14.42;81.97;101303.75;5094741;28;20182;-62
2021/10/27 05:41:55;;;;;;;10.93;5.00;;;;;;;14.33;82.50;101302.50;5094927;28;20177;-71
2021/10/27 05:44:21;;;;;;;10.80;5.10;;;;;;;14.35;82.11;101307.78;5092470;28;20170;-70
2021/10/27 05:46:48;;;;;;;11.90;4.70;;;;;;;14.32;82.39;101299.91;5093706;28;20559;-71
2021/10/27 05:49:29;;;;;;;11.03;5.10;;;;;;;14.31;82.68;101306.25;5092698;28;20166;-69
2021/10/27 05:52:05;;;;;;;9.50;4.90;;;;;;;14.20;82.99;101301.53;5097928;28;20155;-70
2021/10/27 05:57:14;;;;;;;13.93;5.27;;;;;;;14.23;82.88;101300.47;5093965;28;20184;-70
2021/10/27 06:02:07;;;;;;;14.07;5.00;;;;;;;14.36;82.32;101307.69;5032000;28;20215;-73
2021/10/27 06:04:33;;;;;;;13.93;5.17;;;;;;;14.36;82.05;101309.50;5031973;28;20177;-73
2021/10/27 06:06:58;;;;;;;11.00;4.43;;;;;;;14.31;82.74;101307.09;5031613;28;20200;-73
2021/10/27 06:09:23;;;;;;;11.77;5.10;;;;;;;14.07;83.31;101304.06;5032268;28;20180;-73
2021/10/27 06:11:49;;;;;;;9.80;5.20;;;;;;;14.38;82.26;101304.91;5053953;28;20226;-74
2021/10/27 06:14:15;;;;;;;15.50;5.40;;;;;;;14.29;82.04;101298.28;5056002;28;20179;-73
2021/10/27 06:16:40;;;;;;;10.30;5.10;;;;;;;14.33;82.25;101307.00;5035895;28;20270;-73
2021/10/27 06:19:06;;;;;;;7.63;5.00;;;;;;;14.37;82.05;101309.41;5052819;28;20228;-73
2021/10/27 06:21:32;;;;;;;11.30;5.43;;;;;;;14.41;81.67;101318.13;5051461;28;20293;-73
2021/10/27 06:23:58;;;;;;;10.90;5.67;;;;;;;14.46;81.56;101318.75;5051581;28;20202;-73
2021/10/27 06:26:24;;;;;;;9.83;5.33;;;;;;;14.52;81.29;101318.41;5052107;28;20188;-73
2021/10/27 06:31:27;;;;;;;11.80;5.73;;;;;;;14.41;81.40;101312.75;5057804;28;20718;-74
2021/10/27 06:33:59;;;;;;;11.80;5.30;;;;;;;14.51;81.56;101314.00;5040371;28;20200;-75
2021/10/27 06:39:25;;;;;;;13.47;5.37;;;;;;;14.69;80.73;101328.94;5056979;28;20170;-74
2021/10/27 06:47:19;;;;;;;14.20;5.60;;;;;;;14.62;81.67;101335.66;5056370;28;20553;-74
2021/10/27 06:49:44;;;;;;;12.67;5.87;;;;;;;14.63;81.49;101341.91;5055183;28;20187;-74
2021/10/27 06:52:09;;;;;;;11.77;6.20;;;;;;;14.73;81.43;101336.81;5054866;28;20175;-75
2021/10/27 06:54:35;;;;;;;10.00;5.63;;;;;;;14.54;82.67;101334.41;5054880;28;20245;-74
2021/10/27 06:57:00;;;;;;;9.43;6.10;;;;;;;14.73;80.79;101344.88;5054677;28;20699;-74
2021/10/27 06:59:38;;;;;;;11.50;6.00;;;;;;;14.73;80.68;101352.94;5055924;28;20553;-74
2021/10/27 07:02:28;;;;;;;11.50;6.57;;;;;;;14.84;80.67;101353.13;5039505;28;20269;-75
2021/10/27 07:05:11;;;;;;;12.03;6.20;;;;;;;14.61;80.68;101342.00;5054471;28;20179;-74
2021/10/27 07:15:00;;;;;;;10.73;5.87;;;;;;;14.81;80.69;101354.19;5040405;28;20206;-75
2021/10/27 07:16:06;;;;;;;14.00;6.57;;;;;;;14.78;81.05;101378.56;5054508;28;20226;-74
2021/10/27 07:18:32;;;;;;;12.43;6.00;;;;;;;14.78;80.62;101372.31;5054432;28;20203;-73
2021/10/27 07:20:57;;;;;;;15.17;6.30;;;;;;;14.77;80.81;101384.03;5053853;28;20692;-73
2021/10/27 07:23:23;;;;;;;14.10;7.70;;;;;;;15.13;80.02;101381.72;5055386;28;20617;-71
2021/10/27 07:25:56;;;;;;;9.03;6.37;;;;;;;15.12;79.98;101381.84;5055511;28;20171;-73
2021/10/27 07:28:22;;;;;;;13.63;7.00;;;;;;;14.89;80.24;101380.59;5055464;28;20198;-73
2021/10/27 07:30:47;;;;;;;12.17;7.00;;;;;;;15.02;79.85;101377.03;5055228;28;20199;-73
2021/10/27 07:33:13;;;;;;;13.60;7.43;;;;;;;15.13;79.48;101383.56;5054278;28;20198;-73
2021/10/27 07:35:45;;;;;;;13.50;6.57;;;;;;;15.18;79.14;101382.31;5053860;28;20637;-73
2021/10/27 07:40:55;;;;;;;13.07;6.73;;;;;;;15.58;77.99;101377.09;5054294;28;20206;-73
2021/10/27 07:43:23;;;;;;;12.03;6.83;;;;;;;15.08;79.76;101370.41;5055622;28;20263;-72
2021/10/27 07:45:48;;;;;;;9.27;6.77;;;;;;;15.55;77.83;101371.88;5053766;28;20202;-74
2021/10/27 07:48:15;;;;;;;10.77;6.50;;;;;;;15.25;79.14;101378.28;5053125;28;20572;-73
2021/10/27 07:50:41;;;;;;;11.87;6.80;;;;;;;15.42;78.81;101379.03;5053674;28;20260;-73
2021/10/27 07:53:09;;;;;;;13.97;7.20;;;;;;;15.57;78.38;101391.47;5053401;28;20593;-74
2021/10/27 07:55:40;;;;;;;13.17;7.17;;;;;;;15.69;78.05;101382.66;5036869;28;20172;-73
2021/10/27 07:58:06;;;;;;;13.93;6.90;;;;;;;15.84;77.08;101380.75;5053583;28;20152;-73
2021/10/27 08:00:31;;;;;;;10.80;6.83;;;;;;;15.60;77.38;101380.53;5054937;28;20408;-73
2021/10/27 08:03:03;;;;;;;12.73;6.87;;;;;;;15.38;78.94;101375.66;5054723;28;20202;-73
2021/10/27 08:05:30;;;;;;;10.20;7.00;;;;;;;15.69;77.73;101374.56;5053059;28;20179;-74
2021/10/27 08:07:57;;;;;;;14.33;7.27;;;;;;;15.82;77.25;101378.19;5053007;28;20203;-72
2021/10/27 08:10:22;;;;;;;12.33;7.40;;;;;;;16.26;76.31;101379.72;5053313;28;20192;-72
2021/10/27 08:12:49;;;;;;;13.83;7.60;;;;;;;15.86;77.25;101377.00;5054201;28;20175;-73
2021/10/27 08:15:15;;;;;;;16.37;8.17;;;;;;;15.77;78.02;101369.53;5037852;28;20180;-74
2021/10/27 08:17:41;;;;;;;13.47;8.03;;;;;;;15.84;77.16;101370.00;5053921;28;20259;-73
2021/10/27 08:20:08;;;;;;;16.07;9.27;;;;;;;15.80;77.66;101358.56;5054264;28;20242;-72
2021/10/27 08:22:33;;;;;;;13.57;7.23;;;;;;;15.87;77.35;101362.56;5053943;28;20180;-73
2021/10/27 08:25:04;;;;;;;10.87;7.20;;;;;;;16.20;76.67;101380.13;5053015;28;20259;-73
2021/10/27 08:27:32;;;;;;;12.47;6.40;;;;;;;16.46;75.41;101379.22;5053058;28;20234;-71
2021/10/27 08:30:03;;;;;;;16.07;6.83;;;;;;;16.44;74.86;101389.25;5052698;28;20233;-73
2021/10/27 08:34:54;;;;;;;11.77;6.00;;;;;;;16.49;75.32;101370.06;5052726;28;20179;-73
2021/10/27 08:37:19;;;;;;;13.63;6.70;;;;;;;16.32;75.67;101373.91;5053738;28;20503;-71
2021/10/27 08:39:45;;;;;;;11.27;6.73;;;;;;;16.26;75.48;101368.94;5053655;28;20695;-73
2021/10/27 08:42:12;;;;;;;11.20;6.23;;;;;;;16.34;75.93;101371.97;5053710;28;20183;-73
2021/10/27 08:44:39;;;;;;;18.80;6.90;;;;;;;16.16;76.87;101373.22;5053363;28;20176;-72
2021/10/27 08:47:05;;;;;;;9.20;5.67;;;;;;;16.16;76.96;101384.00;5052710;28;20195;-73
2021/10/27 08:49:31;;;;;;;11.80;6.40;;;;;;;15.99;77.34;101374.38;5052887;28;20237;-73
2021/10/27 08:51:58;;;;;;;13.23;7.17;;;;;;;16.32;76.18;101378.44;5052734;28;20198;-72
2021/10/27 08:54:25;;;;;;;13.63;6.60;;;;;;;16.46;75.71;101381.91;5053076;28;20183;-72
2021/10/27 08:56:54;;;;;;;11.57;6.67;;;;;;;16.54;76.03;101402.94;5060476;28;20228;-72
2021/10/27 08:59:23;;;;;;;13.40;6.10;;;;;;;16.52;75.48;101381.50;5066650;28;20238;-71
2021/10/27 09:02:05;;;;;;;11.87;6.47;;;;;;;16.37;76.35;101411.31;5068570;28;20581;-72
2021/10/27 09:05:00;;;;;;;11.23;6.47;;;;;;;16.69;75.06;101404.59;5050235;28;20633;-73
2021/10/27 09:08:15;;;;;;;12.30;7.30;;;;;;;16.54;75.70;101393.03;5058168;28;20195;-76
2021/10/27 09:38:59;;;;;;;8.73;6.00;;;;;;;16.60;76.08;101418.69;5053535;28;20174;-73
2021/10/27 09:44:37;;;;;;;11.53;5.80;;;;;;;16.63;76.57;101428.38;5052807;28;20311;-73
2021/10/27 10:06:37;;;;;;;10.03;6.13;;;;;;;16.60;76.79;101425.91;5052013;28;20210;-76
2021/10/27 10:09:03;;;;;;;10.77;6.27;;;;;;;16.87;76.22;101451.84;5052964;28;20700;-74
2021/10/27 10:11:29;;;;;;;8.90;5.47;;;;;;;17.09;75.64;101443.09;5057314;28;20279;-74
2021/10/27 10:13:56;;;;;;;12.13;5.73;;;;;;;16.99;75.82;101438.47;5057267;28;20167;-74
2021/10/27 10:16:22;;;;;;;9.67;5.70;;;;;;;17.05;75.75;101454.22;5057556;28;20179;-72
2021/10/27 10:18:48;;;;;;;10.63;5.90;;;;;;;17.00;75.95;101442.91;5056976;28;20191;-73
2021/10/27 10:21:15;;;;;;;9.70;6.37;;;;;;;16.83;76.58;101427.91;5055761;28;20199;-72
2021/10/27 10:23:40;;;;;;;12.53;6.47;;;;;;;16.71;77.38;101436.81;5055532;28;20179;-72
2021/10/27 10:26:07;;;;;;;10.03;5.80;;;;;;;16.74;77.02;101431.25;5055603;28;20175;-73
2021/10/27 10:28:41;;;;;;;10.50;5.73;;;;;;;16.76;77.40;101432.88;5056618;28;20278;-73
2021/10/27 10:31:08;;;;;;;14.30;7.27;;;;;;;16.63;77.94;101441.84;5055184;28;20206;-74
2021/10/27 10:33:44;;;;;;;10.73;6.27;;;;;;;16.64;78.42;101449.84;5039142;28;20191;-73
2021/10/27 10:36:24;;;;;;;7.87;6.07;;;;;;;16.72;77.84;101435.84;5056233;28;20209;-72
2021/10/27 10:41:41;;;;;;;7.40;5.73;;;;;;;17.14;76.39;101442.81;5056413;28;20226;-73
2021/10/27 11:24:58;;;;;;;9.77;6.00;;;;;;;17.35;76.60;101425.06;5054463;28;20179;-73
2021/10/27 11:27:50;;;;;;;6.90;5.53;;;;;;;16.91;78.07;101412.06;5041128;28;20190;-73
2021/10/27 11:38:39;;;;;;;9.73;5.30;;;;;;;16.56;79.57;101418.03;5054014;28;20178;-73
2021/10/27 11:41:19;;;;;;;8.63;5.27;;;;;;;16.73;78.45;101422.31;5053664;28;20188;-72
2021/10/27 11:44:25;;;;;;;8.13;5.60;;;;;;;16.74;79.58;101409.69;5054106;28;20167;-74
2021/10/27 11:47:02;;;;;;;8.47;5.37;;;;;;;16.98;78.27;101417.88;5049688;28;20191;-73
2021/10/27 11:49:41;;;;;;;7.20;4.93;;;;;;;16.93;78.65;101414.66;5053800;28;20622;-74
2021/10/27 11:52:09;;;;;;;9.97;5.30;;;;;;;16.73;78.66;101411.53;5055034;28;20689;-73
2021/10/27 11:54:38;;;;;;;8.90;5.40;;;;;;;16.52;79.49;101403.03;5053431;28;20202;-73
2021/10/27 11:57:04;;;;;;;10.47;5.60;;;;;;;16.46;79.89;101392.69;5054578;28;20172;-74
2021/10/27 11:59:42;;;;;;;9.27;5.27;;;;;;;17.04;78.89;101407.50;5053163;28;20183;-73
2021/10/27 12:02:07;;;;;;;7.43;5.10;;;;;;;17.00;78.23;101397.91;5085932;22;20233;-69
2021/10/27 12:04:33;;;;;;;6.33;4.60;;;;;;;17.10;77.69;101393.63;5075523;28;20603;-69
2021/10/27 12:07:08;;;;;;;5.23;3.97;;;;;;;17.11;78.31;101392.66;5074108;28;20245;-68
2021/10/27 12:10:15;;;;;;;6.87;4.80;;;;;;;16.48;80.38;101390.75;5075924;28;20162;-69
2021/10/27 12:12:45;;;;;;;8.97;5.07;;;;;;;16.63;80.18;101387.97;5052231;28;20211;-69
2021/10/27 12:17:58;;;;;;;5.20;4.07;;;;;;;16.90;78.77;101386.06;5055418;28;20266;-68
2021/10/27 12:20:39;;;;;;;4.50;3.63;;;;;;;17.17;78.11;101386.81;5055255;28;20213;-68
2021/10/27 12:23:07;;;;;;;5.43;4.10;;;;;;;17.52;76.69;101383.41;5053544;28;20588;-68
2021/10/27 12:25:34;;;;;;;6.13;4.63;;;;;;;16.68;78.98;101361.59;5053646;28;20180;-69
2021/10/27 12:28:05;;;;;;;4.90;4.00;;;;;;;17.09;78.13;101374.81;5054095;28;20223;-69
2021/10/27 12:30:38;;;;;;;7.10;3.83;;;;;;;16.96;78.16;101365.91;5037498;28;20234;-70
2021/10/27 12:33:05;;;;;;;4.87;3.90;;;;;;;17.01;78.44;101361.91;5037307;28;20660;-69
2021/10/27 12:35:31;;;;;;;8.80;3.73;;;;;;;16.94;78.37;101357.91;5054678;28;20263;-69
2021/10/27 12:38:11;;;;;;;6.90;4.00;;;;;;;17.15;77.76;101377.97;5053459;28;20210;-70
2021/10/27 12:40:44;;;;;;;4.67;3.57;;;;;;;16.84;78.96;101367.63;5053803;28;20675;-69
2021/10/27 12:43:12;;;;;;;6.17;3.40;;;;;;;17.02;78.31;101384.31;5054305;28;20171;-69
2021/10/27 12:45:38;;;;;;;4.10;3.70;;;;;;;16.79;79.12;101380.59;5055865;28;20235;-69
2021/10/27 12:48:05;;;;;;;5.20;3.57;;;;;;;16.83;78.96;101364.09;5054741;28;20197;-69
2021/10/27 12:50:31;;;;;;;4.63;3.83;;;;;;;16.69;79.86;101385.72;5053820;28;20581;-69
2021/10/27 12:53:02;;;;;;;8.70;4.80;;;;;;;16.83;79.71;101369.47;5037028;28;20180;-70
2021/10/27 12:55:32;;;;;;;5.43;3.87;;;;;;;17.11;78.97;101362.13;5053088;28;20724;-69
2021/10/27 12:58:01;;;;;;;3.87;3.53;;;;;;;16.73;79.84;101368.41;5054568;28;20172;-70
2021/10/27 13:00:57;;;;;;;8.40;4.27;;;;;;;16.82;80.19;101361.50;5053374;28;20195;-69
2021/10/27 13:13:38;;;;;;;4.47;3.73;;;;;;;16.57;80.86;101357.78;5054831;28;20214;-69
2021/10/27 13:18:49;;;;;;;7.50;4.27;;;;;;;16.59;80.66;101379.22;5053105;28;20183;-69
2021/10/27 13:21:29;;;;;;;6.20;4.20;;;;;;;16.65;80.40;101369.84;5054228;28;20191;-68
2021/10/27 13:31:56;;;;;;;8.37;4.20;;;;;;;16.60;81.15;101367.47;5054166;28;20194;-69
2021/10/27 13:34:23;;;;;;;10.53;4.07;;;;;;;16.63;81.44;101369.09;5052315;28;20176;-69
2021/10/27 13:36:49;;;;;;;5.60;3.90;;;;;;;16.46;81.85;101354.97;5052329;28;20176;-69
2021/10/27 13:39:14;;;;;;;6.20;4.23;;;;;;;16.73;80.54;101356.75;5053615;28;20182;-69
2021/10/27 13:41:40;;;;;;;7.37;4.60;;;;;;;16.39;81.28;101371.69;5052803;28;20195;-68
2021/10/27 13:44:16;;;;;;;5.87;4.37;;;;;;;16.70;80.29;101373.97;5053378;28;20545;-69
2021/10/27 13:47:06;;;;;;;6.07;4.13;;;;;;;16.63;80.92;101377.19;5053263;28;20159;-69
2021/10/27 13:49:51;;;;;;;6.70;4.90;;;;;;;16.74;80.42;101371.97;5053559;28;20559;-68
2021/10/27 14:06:15;;;;;;;5.17;4.07;;;;;;;16.67;80.39;101370.63;5052864;28;20178;-67
2021/10/27 14:08:55;;;;;;;6.63;4.63;;;;;;;16.88;79.68;101370.00;5052801;28;20237;-70
2021/10/27 14:11:26;;;;;;;6.03;3.97;;;;;;;16.77;79.82;101358.25;5055421;28;20194;-70